createdAt,value
2019-02-21T16:02:37.591Z,14.90
2019-02-21T16:05:06.797Z,14.70
2019-02-21T16:07:35.191Z,14.60
2019-02-21T16:10:06.879Z,14.50
2019-02-21T16:12:35.393Z,14.30
2019-02-21T16:15:04.233Z,14.20
2019-02-21T16:17:37.052Z,14.10
2019-02-21T16:20:02.932Z,14.00
2019-02-21T16:22:31.313Z,13.90
2019-02-21T16:24:59.677Z,13.80
2019-02-21T16:27:28.096Z,13.70
2019-02-21T16:29:56.784Z,13.60
2019-02-21T16:32:25.170Z,13.50
2019-02-21T16:34:55.189Z,13.40
2019-02-21T16:37:23.607Z,13.30
2019-02-21T16:39:52.004Z,13.20
2019-02-21T16:42:20.388Z,13.10
2019-02-21T16:44:50.318Z,12.90
2019-02-21T16:47:18.714Z,12.80
2019-02-21T16:49:47.164Z,12.60
2019-02-21T16:52:16.087Z,12.50
2019-02-21T16:54:44.498Z,12.30
2019-02-21T16:57:12.938Z,12.10
2019-02-21T16:59:43.298Z,12.00
2019-02-21T17:02:11.402Z,11.80
2019-02-21T17:04:39.811Z,11.60
2019-02-21T17:07:13.746Z,11.40
2019-02-21T17:09:38.244Z,11.30
2019-02-21T17:12:06.645Z,11.10
2019-02-21T17:14:35.030Z,10.90
2019-02-21T17:17:03.440Z,10.80
2019-02-21T17:19:31.859Z,10.60
2019-02-21T17:22:00.237Z,10.40
2019-02-21T17:24:28.607Z,10.30
2019-02-21T17:26:57.823Z,10.10
2019-02-21T17:29:26.199Z,10.00
2019-02-21T17:31:54.853Z,9.80
2019-02-21T17:34:23.274Z,9.70
2019-02-21T17:36:51.657Z,9.60
2019-02-21T17:39:20.078Z,9.50
2019-02-21T17:41:48.466Z,9.40
2019-02-21T17:44:16.975Z,9.30
2019-02-21T17:46:45.338Z,9.20
2019-02-21T17:49:15.695Z,9.10
2019-02-21T17:51:44.168Z,9.00
2019-02-21T17:54:12.581Z,8.90
2019-02-21T17:56:40.986Z,8.90
2019-02-21T17:59:09.382Z,8.80
2019-02-21T18:01:37.779Z,8.80
2019-02-21T18:04:06.165Z,8.70
2019-02-21T18:06:34.570Z,8.70
2019-02-21T18:09:04.232Z,8.60
2019-02-21T18:11:32.665Z,8.60
2019-02-21T18:14:01.050Z,8.60
2019-02-21T18:16:30.494Z,8.60
2019-02-21T18:18:58.930Z,8.50
2019-02-21T18:21:29.406Z,8.50
2019-02-21T18:23:57.795Z,8.50
2019-02-21T18:26:26.259Z,8.40
2019-02-21T18:28:54.701Z,8.40
2019-02-21T18:31:23.101Z,8.40
2019-02-21T18:33:51.528Z,8.30
2019-02-21T18:36:19.907Z,8.30
2019-02-21T18:38:48.454Z,8.30
2019-02-21T18:41:16.884Z,8.20
2019-02-21T18:43:45.244Z,8.20
2019-02-21T18:46:13.650Z,8.20
2019-02-21T18:48:42.045Z,8.10
2019-02-21T18:51:10.454Z,8.10
2019-02-21T18:53:38.856Z,8.10
2019-02-21T18:56:09.431Z,8.10
2019-02-21T18:58:39.448Z,8.10
2019-02-21T19:01:09.472Z,8.10
2019-02-21T19:03:37.861Z,8.10
2019-02-21T19:06:06.551Z,8.00
2019-02-21T19:08:34.929Z,8.00
2019-02-21T19:11:03.332Z,8.00
2019-02-21T19:13:31.786Z,8.00
2019-02-21T19:16:00.140Z,8.00
2019-02-21T19:18:28.579Z,8.00
2019-02-21T19:20:57.012Z,7.90
2019-02-21T19:23:25.453Z,7.90
2019-02-21T19:25:53.835Z,7.90
2019-02-21T19:28:22.268Z,7.90
2019-02-21T19:30:53.918Z,7.80
2019-02-21T19:33:24.658Z,7.80
2019-02-21T19:35:53.096Z,7.70
2019-02-21T19:38:21.478Z,7.70
2019-02-21T19:40:49.896Z,7.70
2019-02-21T19:43:18.304Z,7.70
2019-02-21T19:45:46.735Z,7.60
2019-02-21T19:48:15.121Z,7.60
2019-02-21T19:50:43.613Z,7.60
2019-02-21T19:53:14.363Z,7.60
2019-02-21T19:55:42.063Z,7.60
2019-02-21T19:58:10.452Z,7.60
2019-02-21T20:00:40.541Z,7.60
2019-02-21T20:03:08.954Z,7.60
2019-02-21T20:05:39.482Z,7.70
2019-02-21T20:08:09.042Z,7.80
2019-02-21T20:10:37.583Z,7.80
2019-02-21T20:13:08.386Z,7.80
2019-02-21T20:15:36.771Z,7.90
2019-02-21T20:18:05.199Z,7.90
2019-02-21T20:20:33.646Z,8.00
2019-02-21T20:23:02.061Z,8.00
2019-02-21T20:25:30.473Z,8.10
2019-02-21T20:28:00.481Z,8.10
2019-02-21T20:30:29.021Z,8.20
2019-02-21T20:32:57.437Z,8.20
2019-02-21T20:35:25.871Z,8.30
2019-02-21T20:37:54.272Z,8.30
2019-02-21T20:40:22.750Z,8.30
2019-02-21T20:42:51.120Z,8.40
2019-02-21T20:45:21.178Z,8.40
2019-02-21T20:47:49.581Z,8.40
2019-02-21T20:50:18.083Z,8.50
2019-02-21T20:52:46.477Z,8.50
2019-02-21T20:55:15.164Z,8.50
2019-02-21T20:57:43.550Z,8.50
2019-02-21T21:00:13.678Z,8.60
2019-02-21T21:02:42.112Z,8.60
2019-02-21T21:05:10.469Z,8.60
2019-02-21T21:07:38.954Z,8.60
2019-02-21T21:10:13.274Z,8.60
2019-02-21T21:12:41.689Z,8.60
2019-02-21T21:15:11.702Z,8.60
2019-02-21T21:17:40.100Z,8.60
2019-02-21T21:20:16.409Z,8.70
2019-02-21T21:22:40.376Z,8.70
2019-02-21T21:25:11.670Z,8.70
2019-02-21T21:27:40.067Z,8.70
2019-02-21T21:30:10.620Z,8.70
2019-02-21T21:32:39.021Z,8.70
2019-02-21T21:35:07.505Z,8.70
2019-02-21T21:37:35.907Z,8.70
2019-02-21T21:40:06.821Z,8.70
2019-02-21T21:42:35.602Z,8.70
2019-02-21T21:45:06.359Z,8.60
2019-02-21T21:47:34.778Z,8.70
2019-02-21T21:50:03.241Z,8.60
2019-02-21T21:52:31.665Z,8.60
2019-02-21T21:55:00.175Z,8.70
2019-02-21T21:57:28.667Z,8.70
2019-02-21T21:59:57.068Z,8.70
2019-02-21T22:02:25.759Z,8.70
2019-02-21T22:04:54.148Z,8.70
2019-02-21T22:07:22.542Z,8.70
2019-02-21T22:09:50.920Z,8.70
2019-02-21T22:12:19.257Z,8.70
2019-02-21T22:14:47.638Z,8.70
2019-02-21T22:17:16.119Z,8.70
2019-02-21T22:19:44.507Z,8.70
2019-02-21T22:22:12.938Z,8.70
2019-02-21T22:24:41.326Z,8.70
2019-02-21T22:27:09.994Z,8.70
2019-02-21T22:29:38.389Z,8.70
2019-02-21T22:32:06.762Z,8.70
2019-02-21T22:34:35.449Z,8.70
2019-02-21T22:37:03.840Z,8.70
2019-02-21T22:39:32.264Z,8.70
2019-02-21T22:42:00.946Z,8.70
2019-02-21T22:44:29.356Z,8.70
2019-02-21T22:46:57.732Z,8.70
2019-02-21T22:49:26.423Z,8.70
2019-02-21T22:51:54.841Z,8.70
2019-02-21T22:54:23.237Z,8.70
2019-02-21T22:56:51.626Z,8.70
2019-02-21T22:59:20.325Z,8.70
2019-02-21T23:01:48.717Z,8.60
2019-02-21T23:04:20.215Z,8.70
2019-02-21T23:06:55.060Z,8.60
2019-02-21T23:09:27.920Z,8.60
2019-02-21T23:11:54.913Z,8.60
2019-02-21T23:14:23.308Z,8.60
2019-02-21T23:16:51.770Z,8.60
2019-02-21T23:19:20.180Z,8.60
2019-02-21T23:21:48.556Z,8.50
2019-02-21T23:24:16.938Z,8.50
2019-02-21T23:26:45.424Z,8.50
2019-02-21T23:29:13.794Z,8.50
2019-02-21T23:31:42.220Z,8.50
2019-02-21T23:34:12.238Z,8.50
2019-02-21T23:36:40.636Z,8.50
2019-02-21T23:39:09.013Z,8.50
2019-02-21T23:41:37.420Z,8.50
2019-02-21T23:44:05.798Z,8.50
2019-02-21T23:46:34.228Z,8.40
2019-02-21T23:49:02.635Z,8.50
2019-02-21T23:51:31.051Z,8.40
2019-02-21T23:54:03.044Z,8.40
2019-02-21T23:56:30.053Z,8.40
2019-02-21T23:58:58.732Z,8.40
